sensor_id;sensor_type;location;lat;lon;timestamp;P1;durP1;ratioP1;P2;durP2;ratioP2
1390;SDS011;690;51.454;7.194;2023-07-31T00:01:58;4.37;;;3.10;;
1390;SDS011;690;51.454;7.194;2023-07-31T00:04:25;3.73;;;3.40;;
1390;SDS011;690;51.454;7.194;2023-07-31T00:06:52;4.30;;;3.73;;
1390;SDS011;690;51.454;7.194;2023-07-31T00:09:19;4.40;;;3.20;;
1390;SDS011;690;51.454;7.194;2023-07-31T00:11:46;5.00;;;3.80;;
1390;SDS011;690;51.454;7.194;2023-07-31T00:14:13;5.90;;;4.10;;
1390;SDS011;690;51.454;7.194;2023-07-31T00:16:41;5.33;;;4.17;;
1390;SDS011;690;51.454;7.194;2023-07-31T00:19:08;6.93;;;5.33;;
1390;SDS011;690;51.454;7.194;2023-07-31T00:21:35;5.50;;;4.90;;
1390;SDS011;690;51.454;7.194;2023-07-31T00:24:02;10.30;;;5.30;;
1390;SDS011;690;51.454;7.194;2023-07-31T00:26:29;6.27;;;5.03;;
1390;SDS011;690;51.454;7.194;2023-07-31T00:28:56;9.03;;;5.80;;
1390;SDS011;690;51.454;7.194;2023-07-31T00:31:23;10.97;;;6.23;;
1390;SDS011;690;51.454;7.194;2023-07-31T00:33:51;13.20;;;6.03;;
1390;SDS011;690;51.454;7.194;2023-07-31T00:36:18;13.00;;;6.87;;
1390;SDS011;690;51.454;7.194;2023-07-31T00:38:45;7.97;;;5.93;;
1390;SDS011;690;51.454;7.194;2023-07-31T00:41:12;10.07;;;5.80;;
1390;SDS011;690;51.454;7.194;2023-07-31T00:43:38;11.93;;;7.53;;
1390;SDS011;690;51.454;7.194;2023-07-31T00:46:05;14.33;;;7.10;;
1390;SDS011;690;51.454;7.194;2023-07-31T00:48:33;16.70;;;7.13;;
1390;SDS011;690;51.454;7.194;2023-07-31T00:51:03;8.80;;;7.40;;
1390;SDS011;690;51.454;7.194;2023-07-31T00:53:30;15.83;;;8.03;;
1390;SDS011;690;51.454;7.194;2023-07-31T00:55:57;12.47;;;7.30;;
1390;SDS011;690;51.454;7.194;2023-07-31T00:58:24;14.57;;;8.47;;
1390;SDS011;690;51.454;7.194;2023-07-31T01:00:51;16.43;;;10.23;;
1390;SDS011;690;51.454;7.194;2023-07-31T01:03:18;15.37;;;10.37;;
1390;SDS011;690;51.454;7.194;2023-07-31T01:05:48;13.57;;;10.40;;
1390;SDS011;690;51.454;7.194;2023-07-31T01:08:27;17.70;;;11.07;;
1390;SDS011;690;51.454;7.194;2023-07-31T01:11:00;19.40;;;10.73;;
1390;SDS011;690;51.454;7.194;2023-07-31T01:13:32;15.63;;;9.57;;
1390;SDS011;690;51.454;7.194;2023-07-31T01:16:00;10.23;;;8.40;;
1390;SDS011;690;51.454;7.194;2023-07-31T01:18:27;16.57;;;8.67;;
1390;SDS011;690;51.454;7.194;2023-07-31T01:20:54;17.87;;;8.57;;
1390;SDS011;690;51.454;7.194;2023-07-31T01:23:42;13.13;;;7.47;;
1390;SDS011;690;51.454;7.194;2023-07-31T01:26:24;14.33;;;7.30;;
1390;SDS011;690;51.454;7.194;2023-07-31T01:29:00;22.53;;;9.30;;
1390;SDS011;690;51.454;7.194;2023-07-31T01:31:32;14.60;;;8.03;;
1390;SDS011;690;51.454;7.194;2023-07-31T01:34:01;20.27;;;7.90;;
1390;SDS011;690;51.454;7.194;2023-07-31T01:36:28;13.33;;;7.40;;
1390;SDS011;690;51.454;7.194;2023-07-31T01:38:57;15.17;;;7.90;;
1390;SDS011;690;51.454;7.194;2023-07-31T01:41:26;11.43;;;6.97;;
1390;SDS011;690;51.454;7.194;2023-07-31T01:43:53;13.83;;;7.43;;
1390;SDS011;690;51.454;7.194;2023-07-31T01:46:20;11.80;;;6.37;;
1390;SDS011;690;51.454;7.194;2023-07-31T01:48:47;10.50;;;6.87;;
1390;SDS011;690;51.454;7.194;2023-07-31T01:51:14;10.63;;;6.60;;
1390;SDS011;690;51.454;7.194;2023-07-31T01:53:41;13.60;;;7.00;;
1390;SDS011;690;51.454;7.194;2023-07-31T01:56:08;10.70;;;6.33;;
1390;SDS011;690;51.454;7.194;2023-07-31T01:58:36;12.90;;;7.07;;
1390;SDS011;690;51.454;7.194;2023-07-31T02:01:03;11.37;;;6.93;;
1390;SDS011;690;51.454;7.194;2023-07-31T02:03:30;13.67;;;6.27;;
1390;SDS011;690;51.454;7.194;2023-07-31T02:05:56;11.17;;;6.03;;
1390;SDS011;690;51.454;7.194;2023-07-31T02:08:23;12.97;;;5.97;;
1390;SDS011;690;51.454;7.194;2023-07-31T02:10:51;12.20;;;6.60;;
1390;SDS011;690;51.454;7.194;2023-07-31T02:13:17;13.70;;;6.03;;
1390;SDS011;690;51.454;7.194;2023-07-31T02:15:47;10.83;;;5.73;;
1390;SDS011;690;51.454;7.194;2023-07-31T02:18:15;13.33;;;7.17;;
1390;SDS011;690;51.454;7.194;2023-07-31T02:20:42;14.37;;;7.17;;
1390;SDS011;690;51.454;7.194;2023-07-31T02:23:11;8.90;;;6.40;;
1390;SDS011;690;51.454;7.194;2023-07-31T02:25:38;12.20;;;5.93;;
1390;SDS011;690;51.454;7.194;2023-07-31T02:28:05;10.27;;;6.03;;
1390;SDS011;690;51.454;7.194;2023-07-31T02:30:31;12.60;;;6.07;;
1390;SDS011;690;51.454;7.194;2023-07-31T02:33:00;11.47;;;5.57;;
1390;SDS011;690;51.454;7.194;2023-07-31T02:35:27;10.43;;;6.43;;
1390;SDS011;690;51.454;7.194;2023-07-31T02:37:53;12.50;;;6.00;;
1390;SDS011;690;51.454;7.194;2023-07-31T02:40:20;9.90;;;5.33;;
1390;SDS011;690;51.454;7.194;2023-07-31T02:42:47;9.50;;;5.00;;
1390;SDS011;690;51.454;7.194;2023-07-31T02:45:14;13.90;;;5.90;;
1390;SDS011;690;51.454;7.194;2023-07-31T02:47:41;11.40;;;5.13;;
1390;SDS011;690;51.454;7.194;2023-07-31T02:50:10;11.70;;;5.80;;
1390;SDS011;690;51.454;7.194;2023-07-31T02:52:36;11.60;;;5.03;;
1390;SDS011;690;51.454;7.194;2023-07-31T02:55:04;11.13;;;5.37;;
1390;SDS011;690;51.454;7.194;2023-07-31T02:57:31;8.90;;;5.10;;
1390;SDS011;690;51.454;7.194;2023-07-31T02:59:58;9.30;;;5.20;;
1390;SDS011;690;51.454;7.194;2023-07-31T03:02:26;15.30;;;5.00;;
1390;SDS011;690;51.454;7.194;2023-07-31T03:04:53;13.07;;;5.60;;
1390;SDS011;690;51.454;7.194;2023-07-31T03:07:21;11.17;;;5.27;;
1390;SDS011;690;51.454;7.194;2023-07-31T03:09:48;13.77;;;7.03;;
1390;SDS011;690;51.454;7.194;2023-07-31T03:12:15;15.27;;;5.20;;
1390;SDS011;690;51.454;7.194;2023-07-31T03:14:41;16.37;;;6.63;;
1390;SDS011;690;51.454;7.194;2023-07-31T03:17:08;14.00;;;5.90;;
1390;SDS011;690;51.454;7.194;2023-07-31T03:19:35;11.63;;;5.77;;
1390;SDS011;690;51.454;7.194;2023-07-31T03:22:02;12.37;;;5.17;;
1390;SDS011;690;51.454;7.194;2023-07-31T03:24:31;9.70;;;4.73;;
1390;SDS011;690;51.454;7.194;2023-07-31T03:26:58;13.13;;;6.00;;
1390;SDS011;690;51.454;7.194;2023-07-31T03:29:25;13.50;;;5.67;;
1390;SDS011;690;51.454;7.194;2023-07-31T03:31:51;12.30;;;5.70;;
1390;SDS011;690;51.454;7.194;2023-07-31T03:34:18;9.53;;;4.90;;
1390;SDS011;690;51.454;7.194;2023-07-31T03:36:45;10.27;;;5.40;;
1390;SDS011;690;51.454;7.194;2023-07-31T03:39:12;10.40;;;5.40;;
1390;SDS011;690;51.454;7.194;2023-07-31T03:41:41;11.20;;;5.40;;
1390;SDS011;690;51.454;7.194;2023-07-31T03:44:07;11.70;;;5.33;;
1390;SDS011;690;51.454;7.194;2023-07-31T03:46:34;11.77;;;5.80;;
1390;SDS011;690;51.454;7.194;2023-07-31T03:49:01;14.40;;;6.00;;
1390;SDS011;690;51.454;7.194;2023-07-31T03:51:28;10.77;;;5.00;;
1390;SDS011;690;51.454;7.194;2023-07-31T03:53:55;12.03;;;5.37;;
1390;SDS011;690;51.454;7.194;2023-07-31T03:56:22;12.33;;;6.13;;
1390;SDS011;690;51.454;7.194;2023-07-31T03:58:50;8.53;;;5.20;;
1390;SDS011;690;51.454;7.194;2023-07-31T04:01:17;9.20;;;4.30;;
1390;SDS011;690;51.454;7.194;2023-07-31T04:03:44;7.83;;;5.37;;
1390;SDS011;690;51.454;7.194;2023-07-31T04:06:11;13.93;;;4.80;;
1390;SDS011;690;51.454;7.194;2023-07-31T04:08:38;12.50;;;5.50;;
1390;SDS011;690;51.454;7.194;2023-07-31T04:11:05;14.47;;;5.40;;
1390;SDS011;690;51.454;7.194;2023-07-31T04:13:32;10.73;;;5.50;;
1390;SDS011;690;51.454;7.194;2023-07-31T04:16:00;9.97;;;5.33;;
1390;SDS011;690;51.454;7.194;2023-07-31T04:18:27;11.10;;;5.00;;
1390;SDS011;690;51.454;7.194;2023-07-31T04:20:56;12.43;;;5.00;;
1390;SDS011;690;51.454;7.194;2023-07-31T04:23:23;11.00;;;6.20;;
1390;SDS011;690;51.454;7.194;2023-07-31T04:25:50;10.73;;;5.50;;
1390;SDS011;690;51.454;7.194;2023-07-31T04:28:17;11.67;;;5.73;;
1390;SDS011;690;51.454;7.194;2023-07-31T04:30:44;6.40;;;4.60;;
1390;SDS011;690;51.454;7.194;2023-07-31T04:33:12;10.10;;;5.70;;
1390;SDS011;690;51.454;7.194;2023-07-31T04:35:39;11.73;;;4.83;;
1390;SDS011;690;51.454;7.194;2023-07-31T04:38:06;11.80;;;5.43;;
1390;SDS011;690;51.454;7.194;2023-07-31T04:40:33;11.03;;;5.20;;
1390;SDS011;690;51.454;7.194;2023-07-31T04:43:00;12.10;;;5.23;;
1390;SDS011;690;51.454;7.194;2023-07-31T04:45:26;13.93;;;5.60;;
1390;SDS011;690;51.454;7.194;2023-07-31T04:47:53;10.33;;;5.03;;
1390;SDS011;690;51.454;7.194;2023-07-31T04:50:22;6.53;;;4.47;;
1390;SDS011;690;51.454;7.194;2023-07-31T04:52:48;12.27;;;5.30;;
1390;SDS011;690;51.454;7.194;2023-07-31T04:55:15;8.90;;;5.73;;
1390;SDS011;690;51.454;7.194;2023-07-31T04:57:42;10.50;;;4.40;;
1390;SDS011;690;51.454;7.194;2023-07-31T05:00:09;11.70;;;5.57;;
1390;SDS011;690;51.454;7.194;2023-07-31T05:02:37;14.77;;;5.80;;
1390;SDS011;690;51.454;7.194;2023-07-31T05:05:04;10.27;;;4.63;;
1390;SDS011;690;51.454;7.194;2023-07-31T05:07:32;12.60;;;5.60;;
1390;SDS011;690;51.454;7.194;2023-07-31T05:09:59;8.37;;;5.13;;
1390;SDS011;690;51.454;7.194;2023-07-31T05:12:26;11.10;;;5.70;;
1390;SDS011;690;51.454;7.194;2023-07-31T05:14:53;12.13;;;5.87;;
1390;SDS011;690;51.454;7.194;2023-07-31T05:17:20;12.00;;;6.47;;
1390;SDS011;690;51.454;7.194;2023-07-31T05:19:46;9.40;;;5.20;;
1390;SDS011;690;51.454;7.194;2023-07-31T05:22:13;14.17;;;4.80;;
1390;SDS011;690;51.454;7.194;2023-07-31T05:24:41;9.50;;;6.03;;
1390;SDS011;690;51.454;7.194;2023-07-31T05:27:08;10.53;;;5.83;;
1390;SDS011;690;51.454;7.194;2023-07-31T05:29:35;12.40;;;5.63;;
1390;SDS011;690;51.454;7.194;2023-07-31T05:32:02;14.00;;;6.33;;
1390;SDS011;690;51.454;7.194;2023-07-31T05:34:30;8.50;;;5.30;;
1390;SDS011;690;51.454;7.194;2023-07-31T05:36:57;13.70;;;5.87;;
1390;SDS011;690;51.454;7.194;2023-07-31T05:39:24;11.27;;;6.10;;
1390;SDS011;690;51.454;7.194;2023-07-31T05:41:52;13.67;;;6.30;;
1390;SDS011;690;51.454;7.194;2023-07-31T05:44:19;9.00;;;5.60;;
1390;SDS011;690;51.454;7.194;2023-07-31T05:46:46;13.70;;;6.13;;
1390;SDS011;690;51.454;7.194;2023-07-31T05:49:13;10.43;;;5.43;;
1390;SDS011;690;51.454;7.194;2023-07-31T05:51:40;14.43;;;6.00;;
1390;SDS011;690;51.454;7.194;2023-07-31T05:54:06;10.83;;;5.90;;
1390;SDS011;690;51.454;7.194;2023-07-31T05:56:33;11.73;;;5.90;;
1390;SDS011;690;51.454;7.194;2023-07-31T05:59:02;9.20;;;5.83;;
1390;SDS011;690;51.454;7.194;2023-07-31T06:01:30;13.53;;;5.93;;
1390;SDS011;690;51.454;7.194;2023-07-31T06:03:57;10.20;;;4.97;;
1390;SDS011;690;51.454;7.194;2023-07-31T06:06:24;13.93;;;6.50;;
1390;SDS011;690;51.454;7.194;2023-07-31T06:08:50;7.33;;;4.90;;
1390;SDS011;690;51.454;7.194;2023-07-31T06:11:18;9.70;;;6.47;;
1390;SDS011;690;51.454;7.194;2023-07-31T06:13:46;9.40;;;5.70;;
1390;SDS011;690;51.454;7.194;2023-07-31T06:16:15;11.93;;;5.90;;
1390;SDS011;690;51.454;7.194;2023-07-31T06:18:42;9.37;;;5.57;;
1390;SDS011;690;51.454;7.194;2023-07-31T06:21:09;8.77;;;5.40;;
1390;SDS011;690;51.454;7.194;2023-07-31T06:23:36;14.30;;;5.67;;
1390;SDS011;690;51.454;7.194;2023-07-31T06:26:03;11.57;;;6.40;;
1390;SDS011;690;51.454;7.194;2023-07-31T06:28:31;9.73;;;5.50;;
1390;SDS011;690;51.454;7.194;2023-07-31T06:30:58;7.63;;;5.20;;
1390;SDS011;690;51.454;7.194;2023-07-31T06:33:27;9.10;;;6.23;;
1390;SDS011;690;51.454;7.194;2023-07-31T06:35:54;8.03;;;5.13;;
1390;SDS011;690;51.454;7.194;2023-07-31T06:38:22;7.80;;;5.63;;
1390;SDS011;690;51.454;7.194;2023-07-31T06:40:50;13.10;;;7.00;;
1390;SDS011;690;51.454;7.194;2023-07-31T06:43:17;11.03;;;6.70;;
1390;SDS011;690;51.454;7.194;2023-07-31T06:45:44;11.40;;;5.30;;
1390;SDS011;690;51.454;7.194;2023-07-31T06:48:13;12.40;;;6.20;;
1390;SDS011;690;51.454;7.194;2023-07-31T06:50:41;13.03;;;6.80;;
1390;SDS011;690;51.454;7.194;2023-07-31T06:53:08;11.63;;;6.30;;
1390;SDS011;690;51.454;7.194;2023-07-31T06:55:35;12.17;;;6.00;;
1390;SDS011;690;51.454;7.194;2023-07-31T06:58:02;7.43;;;5.20;;
1390;SDS011;690;51.454;7.194;2023-07-31T07:00:29;10.00;;;7.00;;
1390;SDS011;690;51.454;7.194;2023-07-31T07:02:58;10.33;;;7.00;;
1390;SDS011;690;51.454;7.194;2023-07-31T07:05:25;10.70;;;6.70;;
1390;SDS011;690;51.454;7.194;2023-07-31T07:07:54;10.63;;;6.60;;
1390;SDS011;690;51.454;7.194;2023-07-31T07:10:20;8.73;;;5.43;;
1390;SDS011;690;51.454;7.194;2023-07-31T07:12:47;6.70;;;5.03;;
1390;SDS011;690;51.454;7.194;2023-07-31T07:15:15;6.70;;;5.07;;
1390;SDS011;690;51.454;7.194;2023-07-31T07:17:42;7.87;;;5.17;;
1390;SDS011;690;51.454;7.194;2023-07-31T07:20:09;7.50;;;5.13;;
1390;SDS011;690;51.454;7.194;2023-07-31T07:22:36;10.93;;;5.07;;
1390;SDS011;690;51.454;7.194;2023-07-31T07:25:05;7.33;;;5.20;;
1390;SDS011;690;51.454;7.194;2023-07-31T07:27:32;7.17;;;5.10;;
1390;SDS011;690;51.454;7.194;2023-07-31T07:29:59;6.80;;;5.17;;
1390;SDS011;690;51.454;7.194;2023-07-31T07:32:26;10.00;;;6.47;;
1390;SDS011;690;51.454;7.194;2023-07-31T07:34:53;7.60;;;4.57;;
1390;SDS011;690;51.454;7.194;2023-07-31T07:37:21;8.00;;;5.50;;
1390;SDS011;690;51.454;7.194;2023-07-31T07:39:48;5.93;;;4.33;;
1390;SDS011;690;51.454;7.194;2023-07-31T07:42:16;5.90;;;4.97;;
1390;SDS011;690;51.454;7.194;2023-07-31T07:44:43;7.40;;;5.00;;
1390;SDS011;690;51.454;7.194;2023-07-31T07:47:10;9.13;;;5.50;;
1390;SDS011;690;51.454;7.194;2023-07-31T07:49:37;6.17;;;4.03;;
1390;SDS011;690;51.454;7.194;2023-07-31T07:52:04;8.00;;;4.60;;
1390;SDS011;690;51.454;7.194;2023-07-31T07:54:31;5.50;;;4.23;;
1390;SDS011;690;51.454;7.194;2023-07-31T07:56:58;7.27;;;4.23;;
1390;SDS011;690;51.454;7.194;2023-07-31T07:59:27;10.83;;;5.00;;
1390;SDS011;690;51.454;7.194;2023-07-31T08:01:53;7.60;;;5.30;;
1390;SDS011;690;51.454;7.194;2023-07-31T08:04:20;9.43;;;4.60;;
1390;SDS011;690;51.454;7.194;2023-07-31T08:06:47;6.43;;;4.20;;
1390;SDS011;690;51.454;7.194;2023-07-31T08:09:15;6.30;;;4.43;;
1390;SDS011;690;51.454;7.194;2023-07-31T08:11:41;5.90;;;4.50;;
1390;SDS011;690;51.454;7.194;2023-07-31T08:14:08;9.43;;;4.60;;
1390;SDS011;690;51.454;7.194;2023-07-31T08:16:36;6.80;;;4.57;;
1390;SDS011;690;51.454;7.194;2023-07-31T08:19:04;7.33;;;4.50;;
1390;SDS011;690;51.454;7.194;2023-07-31T08:21:31;5.87;;;4.10;;
1390;SDS011;690;51.454;7.194;2023-07-31T08:23:58;5.00;;;3.87;;
1390;SDS011;690;51.454;7.194;2023-07-31T08:26:25;8.33;;;4.00;;
1390;SDS011;690;51.454;7.194;2023-07-31T08:28:52;5.10;;;4.47;;
1390;SDS011;690;51.454;7.194;2023-07-31T08:31:19;9.17;;;4.20;;
1390;SDS011;690;51.454;7.194;2023-07-31T08:33:47;7.13;;;4.20;;
1390;SDS011;690;51.454;7.194;2023-07-31T08:36:14;6.73;;;4.03;;
1390;SDS011;690;51.454;7.194;2023-07-31T08:38:41;8.93;;;3.73;;
1390;SDS011;690;51.454;7.194;2023-07-31T08:41:08;4.63;;;3.70;;
1390;SDS011;690;51.454;7.194;2023-07-31T08:43:35;3.50;;;2.90;;
1390;SDS011;690;51.454;7.194;2023-07-31T08:46:04;6.00;;;4.73;;
1390;SDS011;690;51.454;7.194;2023-07-31T08:48:32;4.37;;;2.80;;
1390;SDS011;690;51.454;7.194;2023-07-31T08:51:01;3.10;;;2.73;;
1390;SDS011;690;51.454;7.194;2023-07-31T08:53:28;4.20;;;2.83;;
1390;SDS011;690;51.454;7.194;2023-07-31T08:55:55;3.10;;;2.47;;
1390;SDS011;690;51.454;7.194;2023-07-31T08:58:24;3.93;;;2.53;;
1390;SDS011;690;51.454;7.194;2023-07-31T09:00:53;4.93;;;3.43;;
1390;SDS011;690;51.454;7.194;2023-07-31T09:03:23;5.57;;;3.07;;
1390;SDS011;690;51.454;7.194;2023-07-31T09:05:51;4.83;;;3.13;;
1390;SDS011;690;51.454;7.194;2023-07-31T09:08:21;3.60;;;2.53;;
1390;SDS011;690;51.454;7.194;2023-07-31T09:10:48;4.70;;;2.83;;
1390;SDS011;690;51.454;7.194;2023-07-31T09:13:16;4.30;;;2.47;;
1390;SDS011;690;51.454;7.194;2023-07-31T09:15:43;4.60;;;3.03;;
1390;SDS011;690;51.454;7.194;2023-07-31T09:18:11;5.40;;;3.00;;
1390;SDS011;690;51.454;7.194;2023-07-31T09:20:39;3.53;;;2.93;;
1390;SDS011;690;51.454;7.194;2023-07-31T09:23:07;3.53;;;2.80;;
1390;SDS011;690;51.454;7.194;2023-07-31T09:25:36;5.83;;;3.10;;
1390;SDS011;690;51.454;7.194;2023-07-31T09:28:04;4.63;;;2.87;;
1390;SDS011;690;51.454;7.194;2023-07-31T09:30:41;4.30;;;3.07;;
1390;SDS011;690;51.454;7.194;2023-07-31T09:33:11;4.73;;;2.83;;
1390;SDS011;690;51.454;7.194;2023-07-31T09:35:38;4.07;;;3.03;;
1390;SDS011;690;51.454;7.194;2023-07-31T09:38:07;5.23;;;2.70;;
1390;SDS011;690;51.454;7.194;2023-07-31T09:40:38;2.47;;;2.00;;
1390;SDS011;690;51.454;7.194;2023-07-31T09:43:06;3.90;;;2.20;;
1390;SDS011;690;51.454;7.194;2023-07-31T09:45:35;3.33;;;2.70;;
1390;SDS011;690;51.454;7.194;2023-07-31T09:48:06;2.13;;;1.93;;
1390;SDS011;690;51.454;7.194;2023-07-31T09:50:36;2.87;;;1.90;;
1390;SDS011;690;51.454;7.194;2023-07-31T09:53:04;3.80;;;2.33;;
1390;SDS011;690;51.454;7.194;2023-07-31T09:55:31;3.03;;;2.20;;
1390;SDS011;690;51.454;7.194;2023-07-31T09:58:00;2.87;;;2.33;;
1390;SDS011;690;51.454;7.194;2023-07-31T10:00:31;3.03;;;2.00;;
1390;SDS011;690;51.454;7.194;2023-07-31T10:02:58;2.23;;;2.03;;
1390;SDS011;690;51.454;7.194;2023-07-31T10:05:27;2.97;;;2.67;;
1390;SDS011;690;51.454;7.194;2023-07-31T10:08:00;3.67;;;2.70;;
1390;SDS011;690;51.454;7.194;2023-07-31T10:10:26;2.17;;;1.93;;
1390;SDS011;690;51.454;7.194;2023-07-31T10:12:54;3.67;;;2.73;;
1390;SDS011;690;51.454;7.194;2023-07-31T10:15:24;2.20;;;1.83;;
1390;SDS011;690;51.454;7.194;2023-07-31T10:17:52;2.37;;;1.70;;
1390;SDS011;690;51.454;7.194;2023-07-31T10:20:20;3.47;;;2.20;;
1390;SDS011;690;51.454;7.194;2023-07-31T10:22:47;2.23;;;2.00;;
1390;SDS011;690;51.454;7.194;2023-07-31T10:25:15;2.97;;;2.67;;
1390;SDS011;690;51.454;7.194;2023-07-31T10:27:44;2.10;;;1.90;;
1390;SDS011;690;51.454;7.194;2023-07-31T10:30:15;2.13;;;1.93;;
1390;SDS011;690;51.454;7.194;2023-07-31T10:32:46;2.37;;;2.17;;
1390;SDS011;690;51.454;7.194;2023-07-31T10:35:15;2.37;;;2.17;;
1390;SDS011;690;51.454;7.194;2023-07-31T10:37:43;4.63;;;2.43;;
1390;SDS011;690;51.454;7.194;2023-07-31T10:40:11;2.17;;;1.70;;
1390;SDS011;690;51.454;7.194;2023-07-31T10:42:45;1.87;;;1.67;;
1390;SDS011;690;51.454;7.194;2023-07-31T10:45:13;2.63;;;2.20;;
1390;SDS011;690;51.454;7.194;2023-07-31T10:47:51;3.93;;;2.20;;
1390;SDS011;690;51.454;7.194;2023-07-31T10:50:27;2.60;;;1.93;;
1390;SDS011;690;51.454;7.194;2023-07-31T10:52:56;3.37;;;2.60;;
1390;SDS011;690;51.454;7.194;2023-07-31T10:55:24;2.50;;;2.30;;
1390;SDS011;690;51.454;7.194;2023-07-31T10:57:52;2.30;;;2.10;;
1390;SDS011;690;51.454;7.194;2023-07-31T11:00:20;4.63;;;2.63;;
1390;SDS011;690;51.454;7.194;2023-07-31T11:03:03;3.20;;;2.57;;
1390;SDS011;690;51.454;7.194;2023-07-31T11:05:44;3.00;;;2.67;;
1390;SDS011;690;51.454;7.194;2023-07-31T11:08:14;3.23;;;2.80;;
1390;SDS011;690;51.454;7.194;2023-07-31T11:10:43;4.70;;;3.20;;
1390;SDS011;690;51.454;7.194;2023-07-31T11:13:10;5.30;;;3.50;;
1390;SDS011;690;51.454;7.194;2023-07-31T11:15:38;7.13;;;4.10;;
1390;SDS011;690;51.454;7.194;2023-07-31T11:18:06;7.40;;;3.37;;
1390;SDS011;690;51.454;7.194;2023-07-31T11:20:35;7.13;;;4.50;;
1390;SDS011;690;51.454;7.194;2023-07-31T11:23:04;4.40;;;3.60;;
1390;SDS011;690;51.454;7.194;2023-07-31T11:25:33;5.63;;;3.87;;
1390;SDS011;690;51.454;7.194;2023-07-31T11:28:04;5.23;;;3.70;;
1390;SDS011;690;51.454;7.194;2023-07-31T11:30:31;7.33;;;4.03;;
1390;SDS011;690;51.454;7.194;2023-07-31T11:33:01;5.30;;;3.90;;
1390;SDS011;690;51.454;7.194;2023-07-31T11:35:31;4.10;;;3.43;;
1390;SDS011;690;51.454;7.194;2023-07-31T11:37:58;6.40;;;3.97;;
1390;SDS011;690;51.454;7.194;2023-07-31T11:40:26;5.87;;;3.80;;
1390;SDS011;690;51.454;7.194;2023-07-31T11:42:55;5.50;;;4.20;;
1390;SDS011;690;51.454;7.194;2023-07-31T11:45:24;5.73;;;3.83;;
1390;SDS011;690;51.454;7.194;2023-07-31T11:47:53;5.47;;;3.57;;
1390;SDS011;690;51.454;7.194;2023-07-31T11:50:22;6.13;;;3.83;;
1390;SDS011;690;51.454;7.194;2023-07-31T11:52:52;5.80;;;3.50;;
1390;SDS011;690;51.454;7.194;2023-07-31T11:55:22;4.10;;;3.50;;
1390;SDS011;690;51.454;7.194;2023-07-31T11:57:50;4.77;;;3.43;;
1390;SDS011;690;51.454;7.194;2023-07-31T12:00:18;4.13;;;3.23;;
1390;SDS011;690;51.454;7.194;2023-07-31T12:02:45;5.43;;;3.07;;
1390;SDS011;690;51.454;7.194;2023-07-31T12:05:13;6.03;;;3.20;;
1390;SDS011;690;51.454;7.194;2023-07-31T12:07:47;4.43;;;3.00;;
1390;SDS011;690;51.454;7.194;2023-07-31T12:10:24;3.87;;;2.97;;
1390;SDS011;690;51.454;7.194;2023-07-31T12:12:56;5.20;;;3.20;;
1390;SDS011;690;51.454;7.194;2023-07-31T12:15:28;3.90;;;3.10;;
1390;SDS011;690;51.454;7.194;2023-07-31T12:17:57;3.20;;;2.53;;
1390;SDS011;690;51.454;7.194;2023-07-31T12:20:24;4.40;;;3.43;;
1390;SDS011;690;51.454;7.194;2023-07-31T12:22:51;6.23;;;2.83;;
1390;SDS011;690;51.454;7.194;2023-07-31T12:25:17;6.83;;;2.70;;
1390;SDS011;690;51.454;7.194;2023-07-31T12:27:46;2.93;;;2.70;;
1390;SDS011;690;51.454;7.194;2023-07-31T12:30:26;4.73;;;2.60;;
1390;SDS011;690;51.454;7.194;2023-07-31T12:32:53;3.60;;;2.80;;
1390;SDS011;690;51.454;7.194;2023-07-31T12:35:20;6.10;;;3.93;;
1390;SDS011;690;51.454;7.194;2023-07-31T12:37:47;4.93;;;3.97;;
1390;SDS011;690;51.454;7.194;2023-07-31T12:40:14;3.80;;;2.60;;
1390;SDS011;690;51.454;7.194;2023-07-31T12:42:41;4.20;;;2.73;;
1390;SDS011;690;51.454;7.194;2023-07-31T12:45:09;3.43;;;3.03;;
1390;SDS011;690;51.454;7.194;2023-07-31T12:47:36;4.00;;;3.00;;
1390;SDS011;690;51.454;7.194;2023-07-31T12:50:04;3.73;;;3.10;;
1390;SDS011;690;51.454;7.194;2023-07-31T12:52:31;4.70;;;3.30;;
1390;SDS011;690;51.454;7.194;2023-07-31T12:54:58;3.13;;;2.83;;
1390;SDS011;690;51.454;7.194;2023-07-31T12:57:28;4.93;;;3.10;;
1390;SDS011;690;51.454;7.194;2023-07-31T12:59:55;4.60;;;3.13;;
1390;SDS011;690;51.454;7.194;2023-07-31T13:02:24;4.10;;;2.70;;
1390;SDS011;690;51.454;7.194;2023-07-31T13:04:50;4.13;;;3.33;;
1390;SDS011;690;51.454;7.194;2023-07-31T13:07:19;3.43;;;2.77;;
1390;SDS011;690;51.454;7.194;2023-07-31T13:09:46;3.30;;;2.70;;
1390;SDS011;690;51.454;7.194;2023-07-31T13:12:13;2.57;;;2.13;;
1390;SDS011;690;51.454;7.194;2023-07-31T13:14:40;2.90;;;2.63;;
1390;SDS011;690;51.454;7.194;2023-07-31T13:17:07;4.30;;;2.57;;
1390;SDS011;690;51.454;7.194;2023-07-31T13:19:35;4.57;;;2.80;;
1390;SDS011;690;51.454;7.194;2023-07-31T13:22:02;4.70;;;2.40;;
1390;SDS011;690;51.454;7.194;2023-07-31T13:24:29;4.33;;;2.40;;
1390;SDS011;690;51.454;7.194;2023-07-31T13:26:56;4.00;;;2.47;;
1390;SDS011;690;51.454;7.194;2023-07-31T13:29:23;3.93;;;2.50;;
1390;SDS011;690;51.454;7.194;2023-07-31T13:31:51;3.00;;;2.20;;
1390;SDS011;690;51.454;7.194;2023-07-31T13:34:19;3.50;;;2.53;;
1390;SDS011;690;51.454;7.194;2023-07-31T13:36:47;5.97;;;2.53;;
1390;SDS011;690;51.454;7.194;2023-07-31T13:39:14;2.87;;;2.60;;
1390;SDS011;690;51.454;7.194;2023-07-31T13:41:41;6.03;;;2.53;;
1390;SDS011;690;51.454;7.194;2023-07-31T13:44:08;2.87;;;2.57;;
1390;SDS011;690;51.454;7.194;2023-07-31T13:46:34;2.60;;;1.97;;
1390;SDS011;690;51.454;7.194;2023-07-31T13:49:01;3.43;;;3.00;;
1390;SDS011;690;51.454;7.194;2023-07-31T13:51:28;3.33;;;2.30;;
1390;SDS011;690;51.454;7.194;2023-07-31T13:53:56;2.57;;;2.37;;
1390;SDS011;690;51.454;7.194;2023-07-31T13:56:23;2.80;;;2.50;;
1390;SDS011;690;51.454;7.194;2023-07-31T13:58:50;3.17;;;2.87;;
1390;SDS011;690;51.454;7.194;2023-07-31T14:01:17;2.80;;;2.57;;
1390;SDS011;690;51.454;7.194;2023-07-31T14:03:44;5.53;;;3.37;;
1390;SDS011;690;51.454;7.194;2023-07-31T14:06:11;4.73;;;3.23;;
1390;SDS011;690;51.454;7.194;2023-07-31T14:08:38;6.53;;;3.07;;
1390;SDS011;690;51.454;7.194;2023-07-31T14:11:06;3.47;;;2.97;;
1390;SDS011;690;51.454;7.194;2023-07-31T14:13:33;3.67;;;3.10;;
1390;SDS011;690;51.454;7.194;2023-07-31T14:16:00;4.70;;;3.03;;
1390;SDS011;690;51.454;7.194;2023-07-31T14:18:27;3.40;;;3.00;;
1390;SDS011;690;51.454;7.194;2023-07-31T14:20:53;3.40;;;3.03;;
1390;SDS011;690;51.454;7.194;2023-07-31T14:23:20;4.37;;;2.70;;
1390;SDS011;690;51.454;7.194;2023-07-31T14:25:47;3.47;;;2.67;;
1390;SDS011;690;51.454;7.194;2023-07-31T14:28:16;3.17;;;2.93;;
1390;SDS011;690;51.454;7.194;2023-07-31T14:30:42;3.37;;;3.07;;
1390;SDS011;690;51.454;7.194;2023-07-31T14:33:09;4.17;;;2.80;;
1390;SDS011;690;51.454;7.194;2023-07-31T14:35:36;3.40;;;2.90;;
1390;SDS011;690;51.454;7.194;2023-07-31T14:38:03;4.40;;;3.07;;
1390;SDS011;690;51.454;7.194;2023-07-31T14:40:30;4.43;;;3.00;;
1390;SDS011;690;51.454;7.194;2023-07-31T14:42:57;4.07;;;3.10;;
1390;SDS011;690;51.454;7.194;2023-07-31T14:45:25;4.97;;;3.10;;
1390;SDS011;690;51.454;7.194;2023-07-31T14:47:52;4.73;;;4.00;;
1390;SDS011;690;51.454;7.194;2023-07-31T14:50:19;4.40;;;3.17;;
1390;SDS011;690;51.454;7.194;2023-07-31T14:52:47;3.93;;;3.20;;
1390;SDS011;690;51.454;7.194;2023-07-31T14:55:14;5.93;;;4.00;;
1390;SDS011;690;51.454;7.194;2023-07-31T14:57:48;5.00;;;4.07;;
1390;SDS011;690;51.454;7.194;2023-07-31T15:00:15;5.23;;;3.80;;
1390;SDS011;690;51.454;7.194;2023-07-31T15:02:43;4.37;;;3.97;;
1390;SDS011;690;51.454;7.194;2023-07-31T15:05:10;4.10;;;3.70;;
1390;SDS011;690;51.454;7.194;2023-07-31T15:07:37;5.60;;;3.77;;
1390;SDS011;690;51.454;7.194;2023-07-31T15:10:04;6.30;;;3.83;;
1390;SDS011;690;51.454;7.194;2023-07-31T15:12:32;5.73;;;3.90;;
1390;SDS011;690;51.454;7.194;2023-07-31T15:15:03;5.40;;;3.70;;
1390;SDS011;690;51.454;7.194;2023-07-31T15:17:30;6.10;;;4.30;;
1390;SDS011;690;51.454;7.194;2023-07-31T15:19:59;5.60;;;3.47;;
1390;SDS011;690;51.454;7.194;2023-07-31T15:22:26;5.30;;;3.53;;
1390;SDS011;690;51.454;7.194;2023-07-31T15:24:53;4.90;;;3.57;;
1390;SDS011;690;51.454;7.194;2023-07-31T15:27:20;6.27;;;4.13;;
1390;SDS011;690;51.454;7.194;2023-07-31T15:29:48;4.53;;;3.67;;